Time;durP1;ratioP1;P1;durP2;ratioP2;P2;SDS_P1;SDS_P2;PMS_P1;PMS_P2;Temp;Humidity;BMP_temperature;BMP_pressure;BME280_temperature;BME280_humidity;BME280_pressure;Samples;Min_cycle;Max_cycle;Signal;HPM_P1;HPM_P2
2022/07/09 00:00:36;;;;;;;4.03;3.30;;;14.20;99.90;;;;;;5013043;28;20647;-80
2022/07/09 00:03:02;;;;;;;4.70;2.87;;;14.20;99.90;;;;;;5010824;28;20709;-81
2022/07/09 00:05:29;;;;;;;7.90;3.27;;;14.20;99.90;;;;;;5009525;28;20989;-80
2022/07/09 00:07:56;;;;;;;6.57;3.40;;;14.20;99.90;;;;;;5012930;28;20965;-81
2022/07/09 00:10:23;;;;;;;4.53;3.60;;;14.20;99.90;;;;;;5011754;28;20656;-80
2022/07/09 00:12:49;;;;;;;5.73;3.23;;;14.20;99.90;;;;;;5009498;28;20627;-80
2022/07/09 00:15:16;;;;;;;5.83;3.40;;;14.10;99.90;;;;;;5011384;28;20634;-80
2022/07/09 00:17:44;;;;;;;5.27;3.00;;;14.10;99.90;;;;;;5010983;28;20628;-80
2022/07/09 00:20:12;;;;;;;3.03;2.80;;;14.10;99.90;;;;;;5012453;28;20654;-80
2022/07/09 00:22:39;;;;;;;4.10;3.23;;;14.00;99.90;;;;;;5012550;28;21047;-80
2022/07/09 00:25:06;;;;;;;3.60;2.93;;;14.00;99.90;;;;;;5009156;28;20646;-81
2022/07/09 00:27:33;;;;;;;3.53;3.20;;;14.00;99.90;;;;;;5010553;28;20638;-80
2022/07/09 00:29:59;;;;;;;4.60;3.40;;;14.00;99.90;;;;;;5010806;28;21292;-80
2022/07/09 00:32:26;;;;;;;3.30;3.00;;;13.90;99.90;;;;;;5009450;28;20619;-80
2022/07/09 00:34:54;;;;;;;4.40;3.50;;;13.90;99.90;;;;;;5006404;28;20744;-80
2022/07/09 00:37:21;;;;;;;7.33;3.50;;;13.80;99.90;;;;;;5010269;28;20643;-80
2022/07/09 00:39:48;;;;;;;4.00;3.30;;;13.70;99.90;;;;;;5008148;28;20673;-81
2022/07/09 00:42:15;;;;;;;5.07;3.37;;;13.80;99.90;;;;;;5006091;28;20674;-80
2022/07/09 00:44:43;;;;;;;3.83;3.27;;;13.70;99.90;;;;;;5009278;28;21200;-81
2022/07/09 00:47:10;;;;;;;4.93;2.90;;;13.70;99.90;;;;;;5011054;28;20631;-81
2022/07/09 00:49:40;;;;;;;5.40;2.90;;;13.70;99.90;;;;;;5010141;28;21320;-80
2022/07/09 00:52:11;;;;;;;6.60;3.37;;;13.70;99.90;;;;;;5007506;28;20624;-81
2022/07/09 00:54:40;;;;;;;4.40;3.27;;;13.70;99.90;;;;;;5008711;28;20631;-81
2022/07/09 00:57:08;;;;;;;4.83;3.70;;;13.60;99.90;;;;;;5009352;28;20663;-81
2022/07/09 00:59:36;;;;;;;4.13;3.30;;;13.60;99.90;;;;;;5012202;28;20647;-80
2022/07/09 01:02:04;;;;;;;5.70;3.67;;;13.50;99.90;;;;;;5011265;28;20636;-79
2022/07/09 01:04:31;;;;;;;3.30;3.00;;;13.50;99.90;;;;;;5004713;28;20627;-80
2022/07/09 01:06:58;;;;;;;4.30;3.70;;;13.60;99.90;;;;;;5008805;28;20627;-80
2022/07/09 01:09:27;;;;;;;4.70;3.37;;;13.50;99.90;;;;;;5009329;28;20639;-80
2022/07/09 01:11:54;;;;;;;4.63;2.93;;;13.50;99.90;;;;;;5012718;28;20622;-80
2022/07/09 01:14:21;;;;;;;7.30;3.60;;;13.50;99.90;;;;;;5008517;28;20630;-80
2022/07/09 01:16:48;;;;;;;4.40;3.47;;;13.50;99.90;;;;;;5010084;28;20630;-80
2022/07/09 01:19:16;;;;;;;3.70;3.40;;;13.50;99.90;;;;;;5008572;28;20627;-80
2022/07/09 01:21:44;;;;;;;5.60;3.30;;;13.50;99.90;;;;;;5009796;28;21090;-80
2022/07/09 01:24:11;;;;;;;3.90;3.60;;;13.50;99.90;;;;;;5009913;28;20642;-80
2022/07/09 01:26:38;;;;;;;6.07;4.80;;;13.40;99.90;;;;;;5009722;28;20640;-80
2022/07/09 01:29:05;;;;;;;3.53;2.70;;;13.40;99.90;;;;;;5012039;28;20620;-80
2022/07/09 01:31:31;;;;;;;7.83;3.60;;;13.40;99.90;;;;;;5008314;28;20683;-80
2022/07/09 01:33:58;;;;;;;5.03;3.03;;;13.20;99.90;;;;;;5011667;28;20631;-79
2022/07/09 01:36:25;;;;;;;5.30;3.80;;;13.30;99.90;;;;;;5008267;28;20647;-80
2022/07/09 01:38:54;;;;;;;4.33;3.63;;;13.30;99.90;;;;;;5012741;28;20647;-80
2022/07/09 01:41:21;;;;;;;4.57;2.97;;;13.30;99.90;;;;;;5010243;28;20667;-80
2022/07/09 01:43:48;;;;;;;4.70;3.47;;;13.20;99.90;;;;;;5008789;28;21205;-80
2022/07/09 01:46:14;;;;;;;4.53;3.10;;;13.10;99.90;;;;;;5009963;28;20623;-80
2022/07/09 01:48:42;;;;;;;5.07;3.70;;;13.10;99.90;;;;;;5008299;28;20638;-79
2022/07/09 01:51:09;;;;;;;3.80;3.50;;;13.10;99.90;;;;;;5008510;28;20659;-81
2022/07/09 01:53:36;;;;;;;4.00;3.30;;;13.10;99.90;;;;;;5011812;28;20678;-81
2022/07/09 01:56:07;;;;;;;4.00;3.40;;;13.00;99.90;;;;;;5007767;28;20723;-81
2022/07/09 01:58:34;;;;;;;4.17;3.60;;;13.00;99.90;;;;;;5006897;28;21189;-81
2022/07/09 02:01:03;;;;;;;5.13;3.83;;;13.00;99.90;;;;;;5009743;28;20652;-81
2022/07/09 02:03:30;;;;;;;6.00;3.20;;;13.00;99.90;;;;;;5012175;28;21217;-80
2022/07/09 02:05:57;;;;;;;4.20;3.50;;;13.00;99.90;;;;;;5010485;28;20643;-81
2022/07/09 02:08:24;;;;;;;7.30;3.53;;;13.00;99.90;;;;;;5008364;28;21312;-80
2022/07/09 02:10:51;;;;;;;5.67;3.47;;;13.00;99.90;;;;;;5009690;28;21238;-81
2022/07/09 02:13:19;;;;;;;4.10;2.77;;;13.00;99.90;;;;;;5013103;28;21088;-80
2022/07/09 02:15:46;;;;;;;5.57;3.67;;;13.00;99.90;;;;;;5008960;28;20619;-80
2022/07/09 02:18:13;;;;;;;3.27;2.90;;;13.00;99.90;;;;;;5007738;28;20725;-80
2022/07/09 02:20:40;;;;;;;4.30;3.33;;;12.90;99.90;;;;;;5009482;28;20644;-80
2022/07/09 02:23:07;;;;;;;6.57;3.83;;;12.90;99.90;;;;;;5009682;28;21608;-81
2022/07/09 02:25:34;;;;;;;4.57;3.97;;;12.90;99.90;;;;;;5010494;28;20624;-81
2022/07/09 02:28:01;;;;;;;5.43;3.30;;;12.80;99.90;;;;;;5007299;28;20646;-80
2022/07/09 02:30:29;;;;;;;4.90;3.60;;;12.80;99.90;;;;;;5006852;28;21253;-81
2022/07/09 02:32:56;;;;;;;4.00;3.10;;;12.80;99.90;;;;;;5010927;28;21172;-80
2022/07/09 02:35:23;;;;;;;3.63;3.20;;;12.80;99.90;;;;;;5008213;28;20646;-80
2022/07/09 02:37:50;;;;;;;5.73;2.97;;;12.80;99.90;;;;;;5007498;28;20823;-81
2022/07/09 02:40:17;;;;;;;4.30;3.30;;;12.70;99.90;;;;;;5006725;28;20651;-80
2022/07/09 02:42:43;;;;;;;5.47;3.40;;;12.30;99.90;;;;;;5007620;28;21495;-80
2022/07/09 02:45:11;;;;;;;4.70;3.67;;;12.70;99.90;;;;;;5007443;28;20651;-81
2022/07/09 02:47:39;;;;;;;3.70;3.23;;;12.60;99.90;;;;;;5011789;28;20634;-81
2022/07/09 02:50:07;;;;;;;9.73;3.93;;;12.60;99.90;;;;;;5008557;28;20650;-81
2022/07/09 02:52:33;;;;;;;4.53;3.13;;;12.60;99.90;;;;;;5006537;28;20711;-80
2022/07/09 02:55:00;;;;;;;5.90;3.90;;;12.20;99.90;;;;;;5008760;28;20631;-80
2022/07/09 02:57:27;;;;;;;3.90;3.50;;;12.40;99.90;;;;;;5007084;28;20790;-80
2022/07/09 02:59:54;;;;;;;4.50;3.53;;;12.60;99.90;;;;;;5010861;28;20743;-79
2022/07/09 03:02:21;;;;;;;7.20;4.70;;;12.60;99.90;;;;;;5008792;28;20696;-80
2022/07/09 03:04:49;;;;;;;4.87;4.30;;;12.60;99.90;;;;;;5010977;28;21193;-80
2022/07/09 03:07:16;;;;;;;4.60;3.50;;;12.50;99.90;;;;;;5007078;28;20648;-80
2022/07/09 03:09:43;;;;;;;3.50;3.07;;;12.50;99.90;;;;;;5014156;28;21222;-80
2022/07/09 03:12:10;;;;;;;3.27;2.77;;;12.10;99.90;;;;;;5007764;28;20631;-80
2022/07/09 03:14:36;;;;;;;3.80;3.13;;;12.50;99.90;;;;;;5012463;28;21405;-80
2022/07/09 03:17:04;;;;;;;3.47;3.20;;;12.50;99.90;;;;;;5011157;28;20638;-80
2022/07/09 03:19:30;;;;;;;5.10;4.30;;;12.50;99.90;;;;;;5010592;28;20659;-80
2022/07/09 03:21:58;;;;;;;4.20;3.87;;;12.20;99.90;;;;;;5010840;28;20715;-80
2022/07/09 03:24:25;;;;;;;4.27;3.87;;;12.00;99.90;;;;;;5013323;28;21179;-80
2022/07/09 03:26:52;;;;;;;4.00;3.70;;;12.40;99.90;;;;;;5012356;28;20973;-80
2022/07/09 03:29:19;;;;;;;4.57;4.07;;;12.40;99.90;;;;;;5012320;28;21182;-80
2022/07/09 03:31:45;;;;;;;3.60;3.17;;;12.00;99.90;;;;;;5010349;28;21083;-80
2022/07/09 03:34:12;;;;;;;6.13;4.30;;;12.40;99.90;;;;;;5015637;28;21187;-80
2022/07/09 03:36:39;;;;;;;4.67;3.70;;;12.30;99.90;;;;;;5009881;28;20636;-80
2022/07/09 03:39:08;;;;;;;3.80;3.37;;;12.40;99.90;;;;;;5014568;28;20636;-80
2022/07/09 03:41:34;;;;;;;5.80;2.90;;;12.40;99.90;;;;;;5011835;28;20612;-80
2022/07/09 03:44:01;;;;;;;4.27;3.30;;;12.30;99.90;;;;;;5010372;28;20663;-80
2022/07/09 03:46:29;;;;;;;4.70;3.70;;;12.30;99.90;;;;;;5012083;28;20630;-80
2022/07/09 03:48:55;;;;;;;4.73;4.10;;;12.00;99.90;;;;;;5012328;28;20747;-79
2022/07/09 03:51:22;;;;;;;5.27;3.77;;;11.90;99.90;;;;;;5007947;28;20659;-80
2022/07/09 03:53:49;;;;;;;3.90;3.60;;;12.20;99.90;;;;;;5011969;28;20630;-80
2022/07/09 03:56:19;;;;;;;6.63;3.80;;;12.40;99.90;;;;;;5009960;28;20654;-80
2022/07/09 03:58:47;;;;;;;5.80;3.60;;;12.30;99.90;;;;;;5014469;28;20630;-80
2022/07/09 04:01:13;;;;;;;4.40;3.43;;;11.90;99.90;;;;;;5011380;28;20652;-80
2022/07/09 04:03:40;;;;;;;4.93;3.70;;;12.30;99.90;;;;;;5011186;28;21020;-80
2022/07/09 04:06:07;;;;;;;3.40;3.10;;;12.10;99.90;;;;;;5008156;28;20653;-80
2022/07/09 04:08:34;;;;;;;6.90;3.57;;;12.30;99.90;;;;;;5012493;28;20709;-80
2022/07/09 04:11:01;;;;;;;4.47;3.77;;;12.30;99.90;;;;;;5006780;28;21241;-80
2022/07/09 04:13:29;;;;;;;5.40;3.67;;;12.00;99.90;;;;;;5009190;28;20663;-80
2022/07/09 04:15:56;;;;;;;4.10;3.70;;;12.10;99.90;;;;;;5009211;28;20631;-80
2022/07/09 04:18:24;;;;;;;4.77;3.63;;;12.40;99.90;;;;;;5008080;28;20627;-80
2022/07/09 04:20:52;;;;;;;4.30;3.90;;;12.00;99.90;;;;;;5011524;28;20651;-80
2022/07/09 04:23:19;;;;;;;4.67;3.50;;;12.50;99.90;;;;;;5009628;28;20721;-80
2022/07/09 04:25:47;;;;;;;5.03;3.77;;;12.50;99.90;;;;;;5008569;28;20633;-80
2022/07/09 04:28:14;;;;;;;4.43;3.67;;;12.20;99.90;;;;;;5011579;28;20635;-80
2022/07/09 04:30:42;;;;;;;3.67;3.27;;;12.50;99.90;;;;;;5010275;28;20670;-80
2022/07/09 04:33:09;;;;;;;6.23;4.33;;;12.50;99.90;;;;;;5009765;28;20663;-79
2022/07/09 04:35:36;;;;;;;5.70;4.30;;;12.40;99.90;;;;;;5007206;28;20631;-79
2022/07/09 04:38:03;;;;;;;5.70;4.10;;;12.60;99.90;;;;;;5007179;28;20624;-79
2022/07/09 04:40:30;;;;;;;3.97;3.67;;;12.60;99.90;;;;;;5005993;28;20652;-79
2022/07/09 04:42:57;;;;;;;6.40;3.63;;;12.70;99.90;;;;;;5008725;28;20670;-79
2022/07/09 04:45:24;;;;;;;4.40;3.90;;;12.80;99.90;;;;;;5005270;28;21010;-79
2022/07/09 04:47:52;;;;;;;6.43;4.40;;;12.80;99.90;;;;;;5008519;28;21166;-79
2022/07/09 04:50:19;;;;;;;5.90;4.20;;;12.90;99.90;;;;;;5006055;28;20715;-79
2022/07/09 04:52:46;;;;;;;4.30;3.90;;;12.90;99.90;;;;;;5004397;28;20640;-79
2022/07/09 04:55:12;;;;;;;5.33;4.03;;;13.00;99.90;;;;;;5010630;28;20991;-79
2022/07/09 04:57:39;;;;;;;4.37;3.97;;;13.00;99.90;;;;;;5010142;28;21092;-79
2022/07/09 05:00:07;;;;;;;6.33;3.43;;;13.00;99.90;;;;;;5013270;28;20682;-79
2022/07/09 05:02:34;;;;;;;5.97;4.03;;;13.00;99.90;;;;;;5011744;28;20627;-79
2022/07/09 05:05:03;;;;;;;6.00;4.27;;;13.10;99.90;;;;;;5016700;28;20624;-79
2022/07/09 05:07:30;;;;;;;4.30;3.90;;;13.10;99.90;;;;;;5006011;28;20632;-79
2022/07/09 05:09:58;;;;;;;7.13;3.90;;;13.20;99.90;;;;;;5008219;28;20660;-79
2022/07/09 05:12:24;;;;;;;3.80;3.37;;;13.20;99.90;;;;;;5007729;28;20638;-81
2022/07/09 05:14:51;;;;;;;5.23;3.77;;;13.10;99.90;;;;;;5010527;28;20631;-79
2022/07/09 05:17:18;;;;;;;5.23;3.73;;;13.30;99.90;;;;;;5007751;28;20667;-79
2022/07/09 05:19:45;;;;;;;5.37;4.40;;;13.40;99.90;;;;;;5011576;28;20694;-79
2022/07/09 05:22:13;;;;;;;4.67;3.97;;;13.50;99.90;;;;;;5006994;28;21375;-79
2022/07/09 05:24:41;;;;;;;4.13;3.73;;;13.60;99.90;;;;;;5008954;28;20764;-79
2022/07/09 05:27:08;;;;;;;6.07;3.97;;;13.70;99.90;;;;;;5006229;28;21060;-79
2022/07/09 05:29:35;;;;;;;3.90;3.50;;;13.70;99.90;;;;;;5010198;28;20706;-79
2022/07/09 05:32:02;;;;;;;4.27;3.87;;;13.80;99.90;;;;;;5007837;28;20628;-79
2022/07/09 05:34:28;;;;;;;4.70;4.30;;;13.90;99.90;;;;;;5014179;28;20646;-79
2022/07/09 05:36:55;;;;;;;5.63;4.40;;;14.00;99.90;;;;;;5007801;28;20690;-81
2022/07/09 05:39:24;;;;;;;5.97;4.03;;;14.10;99.90;;;;;;5007547;28;20681;-81
2022/07/09 05:41:50;;;;;;;6.87;4.07;;;14.20;99.90;;;;;;5009309;28;20778;-80
2022/07/09 05:44:17;;;;;;;4.93;3.30;;;14.20;99.90;;;;;;5008056;28;20686;-80
2022/07/09 05:46:44;;;;;;;5.80;4.13;;;14.30;99.90;;;;;;5007730;28;20631;-81
2022/07/09 05:49:11;;;;;;;5.77;3.70;;;14.40;99.90;;;;;;5007479;28;20648;-81
2022/07/09 05:51:38;;;;;;;2.93;2.73;;;14.50;99.90;;;;;;5006072;28;20664;-81
2022/07/09 05:54:05;;;;;;;4.97;2.97;;;14.50;99.90;;;;;;5009558;28;21280;-80
2022/07/09 05:56:34;;;;;;;4.67;3.57;;;14.60;99.90;;;;;;5007423;28;20630;-80
2022/07/09 05:59:02;;;;;;;6.40;3.60;;;14.70;99.90;;;;;;5007067;28;20743;-80
2022/07/09 06:01:29;;;;;;;6.53;3.40;;;14.80;99.90;;;;;;5009544;28;20655;-80
2022/07/09 06:03:56;;;;;;;10.70;3.43;;;14.90;99.90;;;;;;5008321;28;20667;-80
2022/07/09 06:06:23;;;;;;;4.37;3.60;;;15.10;99.90;;;;;;5007140;28;21198;-80
2022/07/09 06:08:49;;;;;;;3.80;2.90;;;15.20;99.90;;;;;;5010319;28;20624;-80
2022/07/09 06:11:17;;;;;;;5.10;3.33;;;15.30;99.90;;;;;;5007474;28;20766;-80
2022/07/09 06:13:45;;;;;;;7.60;3.37;;;15.40;99.90;;;;;;5006809;28;21166;-80
2022/07/09 06:16:12;;;;;;;4.37;3.03;;;15.50;99.90;;;;;;5004691;28;20997;-80
2022/07/09 06:18:39;;;;;;;5.50;3.23;;;15.60;99.90;;;;;;5006310;28;21513;-80
2022/07/09 06:21:06;;;;;;;4.03;3.10;;;15.70;99.90;;;;;;5012488;28;21011;-80
2022/07/09 06:23:33;;;;;;;4.27;3.10;;;15.80;99.90;;;;;;5008797;28;20699;-80
2022/07/09 06:25:59;;;;;;;4.83;3.83;;;15.90;99.90;;;;;;5006691;28;20630;-80
2022/07/09 06:28:26;;;;;;;4.80;3.60;;;16.00;99.90;;;;;;5007889;28;20640;-80
2022/07/09 06:30:54;;;;;;;3.70;3.20;;;16.10;99.90;;;;;;5005254;28;20665;-79
2022/07/09 06:33:21;;;;;;;7.33;3.93;;;16.20;99.90;;;;;;5009592;28;20624;-79
2022/07/09 06:35:48;;;;;;;4.03;3.40;;;16.20;99.90;;;;;;5007651;28;20735;-79
2022/07/09 06:38:15;;;;;;;4.53;3.40;;;16.30;99.90;;;;;;5003600;28;20754;-79
2022/07/09 06:40:41;;;;;;;4.10;3.13;;;16.40;99.90;;;;;;5008171;28;20647;-79
2022/07/09 06:43:09;;;;;;;4.57;3.47;;;16.60;99.90;;;;;;5007785;28;20654;-80
2022/07/09 06:45:36;;;;;;;3.50;3.20;;;16.70;99.90;;;;;;5011463;28;21126;-80
2022/07/09 06:48:05;;;;;;;6.20;3.10;;;16.80;99.90;;;;;;5008239;28;20631;-81
2022/07/09 06:50:31;;;;;;;5.17;3.20;;;16.80;99.90;;;;;;5004811;28;20662;-80
2022/07/09 06:52:58;;;;;;;3.53;3.23;;;17.00;99.90;;;;;;5006014;28;20684;-80
2022/07/09 06:55:25;;;;;;;6.97;3.43;;;17.10;99.90;;;;;;5011025;28;20655;-80
2022/07/09 06:57:52;;;;;;;4.67;3.27;;;17.20;99.90;;;;;;5006748;28;20997;-80
2022/07/09 07:00:19;;;;;;;4.90;2.83;;;17.10;99.90;;;;;;5004709;28;20663;-80
2022/07/09 07:02:46;;;;;;;8.00;3.37;;;17.20;99.90;;;;;;5006367;28;21484;-82
2022/07/09 07:05:14;;;;;;;3.53;3.23;;;17.20;99.90;;;;;;5007094;28;20668;-80
2022/07/09 07:07:40;;;;;;;6.83;3.47;;;17.10;99.90;;;;;;5008810;28;20636;-81
2022/07/09 07:10:08;;;;;;;5.90;3.43;;;17.10;99.90;;;;;;5009528;28;20655;-81
2022/07/09 07:12:35;;;;;;;3.57;3.23;;;17.20;99.90;;;;;;5006079;28;20650;-81
2022/07/09 07:15:02;;;;;;;4.70;3.10;;;17.30;99.90;;;;;;5006002;28;20616;-81
2022/07/09 07:17:29;;;;;;;4.53;2.80;;;17.50;99.90;;;;;;5005872;28;21062;-81
2022/07/09 07:19:56;;;;;;;3.70;2.87;;;17.70;99.90;;;;;;5009215;28;20654;-81
2022/07/09 07:22:24;;;;;;;5.40;2.97;;;17.80;99.90;;;;;;5006886;28;20632;-81
2022/07/09 07:24:51;;;;;;;4.20;3.20;;;18.00;99.90;;;;;;5010474;28;20643;-81
2022/07/09 07:27:17;;;;;;;4.67;3.30;;;18.10;99.90;;;;;;5007703;28;20630;-81
2022/07/09 07:29:44;;;;;;;7.97;3.27;;;18.20;99.90;;;;;;5006873;28;20666;-80
2022/07/09 07:32:11;;;;;;;7.23;3.30;;;18.40;99.90;;;;;;5005820;28;20643;-80
2022/07/09 07:34:38;;;;;;;3.23;2.70;;;18.50;99.90;;;;;;5010805;28;20633;-80
2022/07/09 07:37:05;;;;;;;4.20;2.80;;;18.80;99.90;;;;;;5006461;28;21156;-80
2022/07/09 07:39:33;;;;;;;3.80;2.83;;;19.00;99.90;;;;;;5000751;28;20683;-81
2022/07/09 07:42:00;;;;;;;6.63;3.20;;;19.10;99.90;;;;;;5009455;28;20727;-80
2022/07/09 07:44:28;;;;;;;4.33;3.23;;;19.20;99.90;;;;;;5012789;28;20660;-81
2022/07/09 07:46:55;;;;;;;5.43;2.70;;;19.30;99.90;;;;;;5010764;28;20690;-80
2022/07/09 07:49:22;;;;;;;2.93;2.70;;;19.30;99.90;;;;;;5006417;28;21117;-79
2022/07/09 07:51:49;;;;;;;4.90;2.77;;;19.40;99.90;;;;;;5009472;28;20635;-79
2022/07/09 07:54:16;;;;;;;3.90;2.60;;;19.40;99.90;;;;;;5011534;28;20631;-80
2022/07/09 07:56:44;;;;;;;4.77;2.70;;;19.60;99.90;;;;;;5010336;28;20640;-80
2022/07/09 07:59:13;;;;;;;5.40;2.80;;;19.80;99.90;;;;;;5013088;28;20632;-80
2022/07/09 08:01:41;;;;;;;3.53;3.23;;;20.00;99.90;;;;;;5014131;28;20627;-80
2022/07/09 08:04:08;;;;;;;7.77;3.30;;;20.10;99.90;;;;;;5009402;28;21249;-79
2022/07/09 08:06:35;;;;;;;6.50;3.00;;;20.30;99.90;;;;;;5011796;28;20627;-80
2022/07/09 08:09:02;;;;;;;2.63;2.43;;;20.30;99.90;;;;;;5010871;28;20627;-79
2022/07/09 08:11:28;;;;;;;3.47;2.80;;;20.40;99.90;;;;;;5012010;28;20650;-80
2022/07/09 08:13:57;;;;;;;4.03;2.57;;;20.40;99.70;;;;;;5008688;28;20623;-80
2022/07/09 08:16:23;;;;;;;6.47;2.93;;;20.50;99.70;;;;;;5008893;28;20633;-79
2022/07/09 08:18:50;;;;;;;2.30;1.97;;;20.70;98.70;;;;;;5006161;28;20666;-80
2022/07/09 08:21:17;;;;;;;6.23;3.70;;;20.70;98.00;;;;;;5011412;28;20658;-80
2022/07/09 08:23:53;;;;;;;3.90;3.30;;;20.80;97.30;;;;;;5009635;28;20623;-80
2022/07/09 08:26:21;;;;;;;4.43;2.60;;;20.90;97.10;;;;;;5007843;28;20744;-79
2022/07/09 08:28:48;;;;;;;3.50;2.20;;;21.00;96.90;;;;;;5011134;28;20628;-79
2022/07/09 08:31:17;;;;;;;5.30;2.53;;;20.90;96.80;;;;;;5009491;28;20754;-79
2022/07/09 08:33:46;;;;;;;4.17;2.10;;;21.10;96.70;;;;;;5012216;28;20623;-80
2022/07/09 08:36:14;;;;;;;4.80;2.87;;;21.10;96.50;;;;;;5007044;28;20996;-79
2022/07/09 08:38:41;;;;;;;3.17;2.10;;;21.20;96.40;;;;;;5008332;28;21377;-80
2022/07/09 08:41:07;;;;;;;3.60;2.00;;;21.20;96.10;;;;;;5010239;28;20663;-80
2022/07/09 08:43:35;;;;;;;2.73;1.90;;;21.20;95.90;;;;;;5010053;28;21154;-80
2022/07/09 08:46:03;;;;;;;2.70;1.80;;;21.40;95.70;;;;;;5012224;28;21214;-80
2022/07/09 08:48:34;;;;;;;2.60;1.80;;;21.50;95.40;;;;;;5010444;28;20985;-79
2022/07/09 08:51:02;;;;;;;3.77;2.10;;;21.50;94.90;;;;;;5008294;28;20663;-79
2022/07/09 08:53:29;;;;;;;3.30;1.83;;;21.50;95.10;;;;;;5010186;28;20691;-79
2022/07/09 08:55:56;;;;;;;3.70;1.37;;;21.60;95.00;;;;;;5010419;28;20620;-80
2022/07/09 08:58:24;;;;;;;2.93;1.57;;;21.70;95.00;;;;;;5009134;28;21051;-79
2022/07/09 09:00:51;;;;;;;4.97;1.70;;;21.80;95.00;;;;;;5007281;28;20651;-79
2022/07/09 09:03:18;;;;;;;3.63;1.50;;;21.90;94.70;;;;;;5009881;28;20634;-79
2022/07/09 09:06:00;;;;;;;2.40;1.27;;;22.10;94.40;;;;;;5008442;28;20657;-80
2022/07/09 09:08:27;;;;;;;7.33;1.00;;;22.20;94.50;;;;;;5013997;28;20650;-79
2022/07/09 09:10:54;;;;;;;11.87;1.87;;;22.30;94.50;;;;;;5005627;28;21466;-80
2022/07/09 09:13:20;;;;;;;2.07;0.93;;;22.50;95.10;;;;;;5009243;28;20631;-79
2022/07/09 09:15:47;;;;;;;5.33;1.60;;;22.60;95.20;;;;;;5010556;28;21092;-79
2022/07/09 09:18:14;;;;;;;2.33;1.40;;;22.60;93.30;;;;;;5013222;28;20642;-80
2022/07/09 09:20:46;;;;;;;2.63;1.20;;;22.70;93.80;;;;;;5010147;28;20665;-80
2022/07/09 09:23:17;;;;;;;2.80;1.17;;;22.80;94.40;;;;;;5008550;28;20607;-80
2022/07/09 09:25:43;;;;;;;7.00;1.70;;;23.00;94.30;;;;;;5010039;28;20667;-80
2022/07/09 09:28:12;;;;;;;3.07;1.47;;;23.20;94.30;;;;;;5005640;28;20638;-80
2022/07/09 09:30:43;;;;;;;1.27;1.13;;;23.30;93.80;;;;;;5007860;28;20675;-80
2022/07/09 09:33:09;;;;;;;2.83;1.47;;;23.50;93.50;;;;;;5007784;28;21162;-80
2022/07/09 09:35:42;;;;;;;2.20;1.20;;;23.70;93.90;;;;;;5008111;28;20668;-80
2022/07/09 09:38:10;;;;;;;1.90;1.20;;;23.80;93.10;;;;;;5010911;28;20635;-80
2022/07/09 09:40:37;;;;;;;4.63;1.87;;;23.90;92.40;;;;;;5008860;28;20648;-80
2022/07/09 09:43:04;;;;;;;6.30;1.83;;;24.10;92.40;;;;;;5007771;28;20635;-80
2022/07/09 09:45:34;;;;;;;3.10;1.50;;;24.00;91.20;;;;;;5009659;28;20794;-80
2022/07/09 09:48:03;;;;;;;10.67;2.10;;;24.00;91.00;;;;;;5009034;28;20616;-80
2022/07/09 09:50:29;;;;;;;3.90;1.40;;;24.00;91.20;;;;;;5008275;28;20686;-80
2022/07/09 09:52:56;;;;;;;2.80;1.17;;;24.10;91.60;;;;;;5006813;28;20623;-80
2022/07/09 09:55:25;;;;;;;4.43;1.20;;;24.20;91.70;;;;;;5009793;28;21447;-80
2022/07/09 09:57:53;;;;;;;3.00;1.50;;;24.30;91.60;;;;;;5006237;28;20635;-80
2022/07/09 10:00:20;;;;;;;2.60;1.17;;;24.40;91.40;;;;;;5012942;28;20639;-80
2022/07/09 10:02:50;;;;;;;2.03;1.07;;;24.50;90.80;;;;;;5008542;28;20654;-80
2022/07/09 10:05:17;;;;;;;2.70;0.97;;;24.60;88.40;;;;;;5007164;28;20766;-80
2022/07/09 10:07:44;;;;;;;1.40;0.90;;;24.50;85.80;;;;;;5008485;28;20641;-80
2022/07/09 10:10:18;;;;;;;1.50;1.10;;;24.70;87.60;;;;;;5008221;28;20664;-80
2022/07/09 10:12:47;;;;;;;1.37;0.90;;;24.80;88.30;;;;;;5009744;28;20636;-80
2022/07/09 10:15:26;;;;;;;1.93;1.10;;;24.90;87.90;;;;;;5005402;28;20735;-80
2022/07/09 10:17:53;;;;;;;2.37;1.43;;;25.00;87.60;;;;;;5007256;28;20639;-80
2022/07/09 10:20:31;;;;;;;2.17;0.80;;;25.10;87.60;;;;;;5009901;28;20718;-80
2022/07/09 10:22:58;;;;;;;2.63;0.97;;;25.30;87.60;;;;;;5009875;28;20659;-80
2022/07/09 10:25:30;;;;;;;1.53;0.97;;;25.40;86.40;;;;;;5005973;28;20651;-80
2022/07/09 10:27:58;;;;;;;1.80;1.00;;;25.50;86.20;;;;;;5007813;28;20626;-79
2022/07/09 10:30:27;;;;;;;2.03;1.30;;;25.00;85.30;;;;;;5007820;28;20806;-80
2022/07/09 10:33:05;;;;;;;4.53;1.80;;;24.70;85.30;;;;;;5010290;28;20634;-80
2022/07/09 10:35:41;;;;;;;3.80;1.70;;;24.80;86.00;;;;;;5005501;28;20686;-80
2022/07/09 10:38:08;;;;;;;2.70;1.63;;;24.90;86.00;;;;;;5003295;28;20631;-80
2022/07/09 10:40:40;;;;;;;1.40;1.30;;;25.00;84.90;;;;;;5007086;28;20858;-80
2022/07/09 10:43:08;;;;;;;4.00;1.93;;;25.10;85.80;;;;;;5004260;28;20639;-79
2022/07/09 10:45:40;;;;;;;4.20;1.43;;;25.40;86.40;;;;;;5007911;28;20663;-79
2022/07/09 10:48:09;;;;;;;3.57;1.20;;;25.80;85.30;;;;;;5005214;28;21088;-78
2022/07/09 10:50:38;;;;;;;2.17;1.50;;;26.10;85.70;;;;;;5004678;28;21218;-79
2022/07/09 10:53:05;;;;;;;4.00;1.70;;;26.50;82.60;;;;;;5004147;28;20639;-79
2022/07/09 10:55:32;;;;;;;4.87;1.90;;;26.70;82.50;;;;;;5009539;28;20619;-79
2022/07/09 10:58:01;;;;;;;1.70;1.47;;;27.10;82.20;;;;;;5006185;28;20619;-79
2022/07/09 11:00:32;;;;;;;3.50;1.70;;;27.30;80.90;;;;;;5006420;28;20658;-79
2022/07/09 11:03:02;;;;;;;2.27;1.57;;;27.50;81.20;;;;;;5008707;28;20645;-80
2022/07/09 11:05:30;;;;;;;2.83;1.50;;;27.50;78.90;;;;;;5006711;28;20717;-79
2022/07/09 11:08:02;;;;;;;3.13;1.60;;;27.50;77.60;;;;;;5009773;28;21154;-79
2022/07/09 11:10:30;;;;;;;2.70;1.80;;;27.30;76.30;;;;;;5007677;28;21232;-79
2022/07/09 11:12:58;;;;;;;1.83;1.70;;;27.20;76.90;;;;;;5006182;28;20632;-79
2022/07/09 11:15:27;;;;;;;3.17;1.50;;;27.30;76.80;;;;;;5008076;28;21051;-79
2022/07/09 11:18:00;;;;;;;2.13;1.40;;;27.50;77.70;;;;;;5006556;28;20699;-79
2022/07/09 11:20:27;;;;;;;2.00;1.90;;;27.70;77.40;;;;;;5011240;28;20658;-79
2022/07/09 11:22:56;;;;;;;3.57;1.90;;;27.90;76.80;;;;;;5016254;28;20630;-79
2022/07/09 11:25:25;;;;;;;6.00;2.37;;;28.10;76.10;;;;;;5008544;28;20679;-79
2022/07/09 11:27:52;;;;;;;3.77;1.83;;;28.30;76.10;;;;;;5009790;28;20618;-80
2022/07/09 11:30:19;;;;;;;4.07;1.80;;;28.40;74.90;;;;;;5008602;28;20690;-80
2022/07/09 11:32:46;;;;;;;1.53;1.43;;;28.30;74.10;;;;;;5012818;28;20626;-80
2022/07/09 11:35:25;;;;;;;3.63;1.40;;;28.20;73.40;;;;;;5011041;28;20630;-80
2022/07/09 11:37:52;;;;;;;4.63;1.33;;;27.90;73.10;;;;;;5013481;28;20630;-80
2022/07/09 11:40:20;;;;;;;3.43;1.57;;;28.00;73.50;;;;;;5012181;28;20660;-80
2022/07/09 11:42:47;;;;;;;2.43;1.73;;;28.40;72.40;;;;;;5006689;28;20604;-80
2022/07/09 11:45:14;;;;;;;4.53;1.77;;;28.80;72.10;;;;;;5009849;28;20763;-80
2022/07/09 11:47:41;;;;;;;3.00;1.40;;;29.00;70.50;;;;;;5010968;28;20615;-80
2022/07/09 11:50:09;;;;;;;2.10;1.33;;;29.00;69.30;;;;;;5009245;28;20663;-80
2022/07/09 11:52:45;;;;;;;3.93;1.97;;;28.90;67.00;;;;;;5007166;28;20627;-80
2022/07/09 11:55:13;;;;;;;2.57;2.17;;;28.60;69.10;;;;;;5005219;28;20607;-80
2022/07/09 11:57:40;;;;;;;2.10;1.47;;;28.50;69.90;;;;;;5008766;28;20628;-80
2022/07/09 12:00:09;;;;;;;7.43;1.13;;;28.50;70.90;;;;;;5013438;28;20658;-81
2022/07/09 12:02:37;;;;;;;1.43;1.30;;;28.30;68.80;;;;;;5008614;28;20629;-80
2022/07/09 12:05:06;;;;;;;2.27;1.57;;;27.90;68.40;;;;;;5008783;28;20698;-80
2022/07/09 12:07:34;;;;;;;3.80;1.50;;;27.80;69.30;;;;;;5007125;28;20670;-80
2022/07/09 12:10:04;;;;;;;3.70;1.20;;;27.90;70.00;;;;;;5010772;28;20655;-80
2022/07/09 12:12:33;;;;;;;1.80;1.40;;;28.10;68.90;;;;;;5011796;28;21205;-81
2022/07/09 12:15:02;;;;;;;3.67;1.20;;;28.20;68.40;;;;;;5010506;28;20722;-79
2022/07/09 12:17:31;;;;;;;4.23;1.40;;;28.10;65.80;;;;;;5010085;28;20658;-81
2022/07/09 12:19:59;;;;;;;2.13;1.10;;;28.00;66.80;;;;;;5012612;28;21005;-79
2022/07/09 12:22:26;;;;;;;4.63;1.60;;;27.90;68.30;;;;;;5011156;28;21207;-79
2022/07/09 12:24:54;;;;;;;1.43;1.20;;;27.90;70.40;;;;;;5008941;28;21197;-79
2022/07/09 12:27:22;;;;;;;1.93;1.40;;;27.90;70.60;;;;;;5008594;28;20644;-79
2022/07/09 12:29:49;;;;;;;2.30;1.47;;;27.90;70.50;;;;;;5010419;28;20995;-80
2022/07/09 12:32:16;;;;;;;3.00;1.27;;;27.90;71.40;;;;;;5008885;28;20661;-80
2022/07/09 12:34:44;;;;;;;1.70;1.30;;;28.00;69.80;;;;;;5012938;28;20687;-80
2022/07/09 12:37:10;;;;;;;1.93;1.33;;;28.20;69.30;;;;;;5003906;28;20628;-80
2022/07/09 12:39:37;;;;;;;3.23;1.73;;;28.20;67.70;;;;;;5011514;28;21013;-80
2022/07/09 12:42:04;;;;;;;1.40;1.30;;;28.40;68.50;;;;;;5010646;28;20624;-80
2022/07/09 12:44:32;;;;;;;1.77;1.20;;;28.60;68.30;;;;;;5011288;28;20988;-80
2022/07/09 12:46:59;;;;;;;3.40;1.50;;;29.00;67.70;;;;;;5010547;28;20804;-81